createdAt,value
2022-09-29T00:01:04.881Z,72.30
2022-09-29T00:03:31.642Z,72.70
2022-09-29T00:05:58.791Z,72.70
2022-09-29T00:08:26.935Z,73.30
2022-09-29T00:10:53.597Z,73.60
2022-09-29T00:13:20.341Z,72.80
2022-09-29T00:15:55.323Z,72.70
2022-09-29T00:18:22.010Z,72.10
2022-09-29T00:20:56.166Z,72.20
2022-09-29T00:23:26.045Z,71.80
2022-09-29T00:26:03.671Z,71.80
2022-09-29T00:28:31.019Z,71.70
2022-09-29T00:30:58.260Z,71.80
2022-09-29T00:33:24.919Z,71.60
2022-09-29T00:35:59.168Z,71.70
2022-09-29T00:38:26.044Z,71.80
2022-09-29T00:40:52.824Z,71.80
2022-09-29T00:43:21.355Z,71.60
2022-09-29T00:45:48.667Z,72.00
2022-09-29T00:48:17.988Z,72.90
2022-09-29T00:50:46.126Z,73.30
2022-09-29T00:53:19.164Z,73.00
2022-09-29T00:55:57.995Z,73.50
2022-09-29T00:58:33.666Z,74.20
2022-09-29T01:01:00.661Z,73.80
2022-09-29T01:03:30.034Z,73.40
2022-09-29T01:06:01.775Z,72.90
2022-09-29T01:08:31.157Z,72.00
2022-09-29T01:10:58.359Z,71.90
2022-09-29T01:13:25.073Z,71.40
2022-09-29T01:15:51.781Z,71.30
2022-09-29T01:18:18.535Z,71.10
2022-09-29T01:20:53.190Z,71.30
2022-09-29T01:23:34.123Z,71.70
2022-09-29T01:26:06.984Z,71.90
2022-09-29T01:28:45.865Z,73.50
2022-09-29T01:31:12.640Z,74.00
2022-09-29T01:33:43.764Z,74.70
2022-09-29T01:36:29.157Z,73.50
2022-09-29T01:38:55.855Z,72.50
2022-09-29T01:41:25.356Z,72.10
2022-09-29T01:44:02.333Z,71.40
2022-09-29T01:46:38.228Z,70.90
2022-09-29T01:49:06.190Z,70.70
2022-09-29T01:51:38.959Z,70.80
2022-09-29T01:54:08.622Z,70.80
2022-09-29T01:56:43.217Z,70.70
2022-09-29T01:59:17.078Z,71.20
2022-09-29T02:01:45.428Z,71.80
2022-09-29T02:04:21.425Z,71.70
2022-09-29T02:06:56.080Z,71.90
2022-09-29T02:09:27.064Z,72.40
2022-09-29T02:11:54.578Z,72.30
2022-09-29T02:14:25.995Z,73.80
2022-09-29T02:16:55.470Z,74.30
2022-09-29T02:19:27.132Z,75.20
2022-09-29T02:21:54.603Z,75.60
2022-09-29T02:24:22.411Z,75.70
2022-09-29T02:26:49.322Z,77.80
2022-09-29T02:29:16.569Z,78.10
2022-09-29T02:31:44.364Z,78.20
2022-09-29T02:34:13.230Z,78.10
2022-09-29T02:37:02.591Z,78.60
2022-09-29T02:39:29.331Z,78.80
2022-09-29T02:42:13.725Z,78.70
2022-09-29T02:44:40.351Z,77.90
2022-09-29T02:47:10.008Z,77.40
2022-09-29T02:49:43.311Z,77.00
2022-09-29T02:52:17.136Z,76.80
2022-09-29T02:54:43.821Z,76.60
2022-09-29T02:57:24.350Z,76.40
2022-09-29T03:00:13.953Z,76.30
2022-09-29T03:02:41.598Z,76.70
2022-09-29T03:05:10.278Z,76.70
2022-09-29T03:07:40.267Z,76.70
2022-09-29T03:10:07.871Z,76.40
2022-09-29T03:12:34.833Z,76.10
2022-09-29T03:15:01.850Z,75.80
2022-09-29T03:17:28.539Z,75.70
2022-09-29T03:19:55.783Z,75.60
2022-09-29T03:22:22.507Z,76.00
2022-09-29T03:24:49.186Z,75.80
2022-09-29T03:27:15.820Z,75.90
2022-09-29T03:29:42.646Z,75.90
2022-09-29T03:32:09.291Z,75.60
2022-09-29T03:34:36.187Z,75.20
2022-09-29T03:37:02.928Z,75.30
2022-09-29T03:39:29.586Z,75.10
2022-09-29T03:41:56.280Z,75.30
2022-09-29T03:44:22.957Z,75.70
2022-09-29T03:46:49.593Z,75.60
2022-09-29T03:49:16.371Z,76.80
2022-09-29T03:51:43.210Z,77.10
2022-09-29T03:54:10.078Z,77.70
2022-09-29T03:56:37.455Z,77.30
2022-09-29T03:59:09.391Z,77.20
2022-09-29T04:01:38.174Z,77.50
2022-09-29T04:04:05.673Z,77.10
2022-09-29T04:06:32.341Z,77.10
2022-09-29T04:08:58.987Z,78.80
2022-09-29T04:11:25.677Z,80.10
2022-09-29T04:13:52.726Z,80.70
2022-09-29T04:16:19.419Z,80.10
2022-09-29T04:18:46.110Z,79.10
2022-09-29T04:21:12.859Z,78.30
2022-09-29T04:23:39.559Z,78.10
2022-09-29T04:26:06.218Z,77.60
2022-09-29T04:28:33.630Z,78.10
2022-09-29T04:31:00.328Z,78.90
2022-09-29T04:33:27.132Z,78.90
2022-09-29T04:35:53.819Z,79.60
2022-09-29T04:38:20.474Z,79.20
2022-09-29T04:40:47.721Z,79.10
2022-09-29T04:43:14.405Z,80.30
2022-09-29T04:45:41.302Z,83.30
2022-09-29T04:48:07.965Z,85.40
2022-09-29T04:50:34.726Z,85.20
2022-09-29T04:53:01.386Z,88.70
2022-09-29T04:55:28.204Z,89.40
2022-09-29T04:57:54.992Z,88.20
2022-09-29T05:00:21.664Z,89.70
2022-09-29T05:02:49.919Z,87.80
2022-09-29T05:05:16.886Z,85.20
2022-09-29T05:07:44.566Z,83.80
2022-09-29T05:10:11.609Z,82.40
2022-09-29T05:12:38.321Z,81.40
2022-09-29T05:15:06.266Z,81.00
2022-09-29T05:17:33.388Z,81.10
2022-09-29T05:20:00.127Z,81.00
2022-09-29T05:22:26.884Z,80.80
2022-09-29T05:24:53.682Z,80.30
2022-09-29T05:27:21.965Z,80.20
2022-09-29T05:29:49.185Z,80.20
2022-09-29T05:32:16.089Z,79.50
2022-09-29T05:34:43.646Z,79.50
2022-09-29T05:37:10.402Z,78.90
2022-09-29T05:39:37.683Z,78.20
2022-09-29T05:42:06.542Z,78.10
2022-09-29T05:44:36.162Z,77.90
2022-09-29T05:47:02.935Z,77.60
2022-09-29T05:49:32.076Z,77.40
2022-09-29T05:51:59.625Z,76.80
2022-09-29T05:54:27.569Z,76.50
2022-09-29T05:56:54.514Z,76.30
2022-09-29T05:59:21.352Z,76.70
2022-09-29T06:01:48.175Z,76.70
2022-09-29T06:04:15.506Z,76.80
2022-09-29T06:06:42.157Z,76.30
2022-09-29T06:09:08.857Z,75.70
2022-09-29T06:11:35.619Z,75.50
2022-09-29T06:14:03.014Z,75.70
2022-09-29T06:16:30.513Z,76.10
2022-09-29T06:18:58.344Z,76.00
2022-09-29T06:21:26.518Z,76.10
2022-09-29T06:23:56.510Z,76.10
2022-09-29T06:26:24.600Z,76.80
2022-09-29T06:28:52.067Z,76.60
2022-09-29T06:31:20.468Z,75.90
2022-09-29T06:33:47.301Z,75.50
2022-09-29T06:36:36.843Z,75.70
2022-09-29T06:39:05.014Z,76.10
2022-09-29T06:41:31.893Z,76.90
2022-09-29T06:43:58.540Z,77.70
2022-09-29T06:46:26.998Z,77.30
2022-09-29T06:48:54.342Z,78.00
2022-09-29T06:51:23.022Z,77.60
2022-09-29T06:53:51.081Z,77.30
2022-09-29T06:56:18.970Z,77.70
2022-09-29T06:58:46.190Z,77.50
2022-09-29T07:01:13.156Z,76.70
2022-09-29T07:03:40.096Z,76.90
2022-09-29T07:06:19.300Z,76.60
2022-09-29T07:08:46.741Z,76.40
2022-09-29T07:11:13.557Z,75.60
2022-09-29T07:13:40.240Z,75.00
2022-09-29T07:16:08.097Z,75.30
2022-09-29T07:18:35.567Z,75.10
2022-09-29T07:21:02.235Z,74.30
2022-09-29T07:23:29.095Z,73.80
2022-09-29T07:25:55.987Z,72.90
2022-09-29T07:28:23.114Z,72.80
2022-09-29T07:31:09.134Z,72.30
2022-09-29T07:33:39.737Z,72.70
2022-09-29T07:36:06.865Z,72.10
2022-09-29T07:38:33.595Z,71.50
2022-09-29T07:41:04.459Z,71.10
2022-09-29T07:43:31.773Z,70.10
2022-09-29T07:46:00.452Z,70.40
2022-09-29T07:48:31.390Z,67.70
2022-09-29T07:51:02.775Z,68.30
2022-09-29T07:53:30.516Z,67.50
2022-09-29T07:56:01.806Z,67.50
2022-09-29T07:58:28.591Z,65.80
2022-09-29T08:00:55.586Z,65.30
2022-09-29T08:03:22.499Z,63.80
2022-09-29T08:05:49.269Z,62.30
2022-09-29T08:08:15.947Z,61.80
2022-09-29T08:10:51.561Z,61.30
2022-09-29T08:13:19.888Z,60.50
2022-09-29T08:15:46.711Z,59.90
2022-09-29T08:18:13.428Z,58.50
2022-09-29T08:20:40.155Z,58.10
2022-09-29T08:23:07.015Z,57.10
2022-09-29T08:25:35.317Z,57.80
2022-09-29T08:28:02.341Z,56.60
2022-09-29T08:30:29.364Z,56.10
2022-09-29T08:32:56.789Z,54.60
2022-09-29T08:35:23.778Z,54.20
2022-09-29T08:37:50.485Z,53.70
2022-09-29T08:40:17.921Z,53.90
2022-09-29T08:43:03.837Z,53.70
2022-09-29T08:45:32.540Z,52.90
2022-09-29T08:48:13.784Z,51.80
2022-09-29T08:50:56.861Z,51.50
2022-09-29T08:53:28.702Z,50.80
2022-09-29T08:55:56.000Z,51.50
2022-09-29T08:58:22.727Z,53.10
2022-09-29T09:00:52.512Z,53.70
2022-09-29T09:03:41.053Z,54.20
2022-09-29T09:06:07.775Z,54.30
2022-09-29T09:08:37.590Z,55.10
2022-09-29T09:11:22.821Z,54.80
2022-09-29T09:14:07.901Z,58.00
2022-09-29T09:16:37.779Z,58.00
2022-09-29T09:19:23.532Z,58.80
2022-09-29T09:21:55.404Z,59.40
2022-09-29T09:24:25.575Z,60.00
2022-09-29T09:26:52.399Z,59.30
2022-09-29T09:29:22.200Z,58.50
2022-09-29T09:31:53.235Z,58.60
2022-09-29T09:34:35.213Z,58.20
2022-09-29T09:37:08.766Z,58.00
2022-09-29T09:39:37.560Z,57.40
2022-09-29T09:42:08.502Z,57.50
2022-09-29T09:44:40.076Z,57.90
2022-09-29T09:47:18.674Z,58.70
2022-09-29T09:49:48.435Z,59.30
2022-09-29T09:52:18.307Z,56.60
2022-09-29T09:54:46.553Z,56.90
2022-09-29T09:57:16.124Z,57.40
2022-09-29T10:00:01.506Z,57.60
2022-09-29T10:02:29.874Z,60.00
2022-09-29T10:04:56.942Z,59.10
2022-09-29T10:07:25.197Z,59.30
2022-09-29T10:09:52.481Z,60.00
2022-09-29T10:12:20.488Z,59.30
2022-09-29T10:14:52.140Z,59.40
2022-09-29T10:17:20.806Z,57.30
2022-09-29T10:20:01.163Z,57.70
2022-09-29T10:22:29.007Z,57.80
2022-09-29T10:25:14.066Z,56.90
2022-09-29T10:27:42.330Z,55.70
2022-09-29T10:30:29.386Z,56.50
2022-09-29T10:32:59.073Z,55.90
2022-09-29T10:35:32.497Z,55.50
2022-09-29T10:38:05.641Z,55.80
2022-09-29T10:40:32.450Z,54.50
2022-09-29T10:42:59.283Z,55.50
2022-09-29T10:45:32.568Z,56.00
2022-09-29T10:47:59.184Z,57.20
2022-09-29T10:50:27.496Z,56.30
2022-09-29T10:52:55.790Z,56.90
2022-09-29T10:55:32.898Z,56.90
2022-09-29T10:58:01.241Z,56.70
2022-09-29T11:00:31.009Z,55.70
2022-09-29T11:03:16.305Z,55.70
2022-09-29T11:06:02.066Z,56.10
2022-09-29T11:08:28.775Z,54.70
2022-09-29T11:11:06.622Z,53.10
2022-09-29T11:13:38.128Z,52.50
2022-09-29T11:16:06.854Z,52.20
2022-09-29T11:18:35.456Z,51.50
2022-09-29T11:21:22.404Z,51.70
2022-09-29T11:23:51.819Z,53.30
2022-09-29T11:26:18.582Z,51.10
2022-09-29T11:28:51.170Z,50.60
2022-09-29T11:31:40.501Z,50.10
2022-09-29T11:34:19.163Z,52.10
2022-09-29T11:37:18.050Z,51.80
2022-09-29T11:40:01.446Z,53.00
2022-09-29T11:42:34.799Z,52.30
2022-09-29T11:45:03.491Z,50.00
2022-09-29T11:47:49.035Z,52.10
2022-09-29T11:50:31.979Z,50.70
2022-09-29T11:53:18.718Z,49.50
2022-09-29T11:55:51.726Z,49.30
2022-09-29T11:58:21.504Z,49.20
2022-09-29T12:01:06.539Z,51.80
2022-09-29T12:03:47.170Z,50.60
2022-09-29T12:06:15.117Z,48.70
2022-09-29T12:08:57.129Z,47.60
2022-09-29T12:11:47.475Z,50.10
2022-09-29T12:14:13.586Z,47.90
2022-09-29T12:16:45.441Z,48.90
2022-09-29T12:19:15.230Z,48.70
2022-09-29T12:21:42.014Z,48.80
2022-09-29T12:24:17.648Z,48.90
2022-09-29T12:26:45.673Z,48.70
2022-09-29T12:29:12.264Z,47.50
2022-09-29T12:31:41.911Z,48.10
2022-09-29T12:34:14.625Z,47.80
2022-09-29T12:36:52.377Z,49.40
2022-09-29T12:39:35.674Z,48.90
2022-09-29T12:42:06.101Z,49.20
2022-09-29T12:44:38.367Z,49.90
2022-09-29T12:47:10.076Z,47.90
2022-09-29T12:49:50.334Z,48.10
2022-09-29T12:52:23.055Z,48.60
2022-09-29T12:54:55.409Z,49.50
2022-09-29T12:57:22.038Z,51.40
2022-09-29T13:00:04.325Z,52.30
2022-09-29T13:02:45.244Z,52.00
2022-09-29T13:05:30.683Z,51.80
2022-09-29T13:08:19.294Z,52.10
2022-09-29T13:11:18.492Z,52.50
2022-09-29T13:13:51.027Z,53.30
2022-09-29T13:16:17.730Z,53.50
2022-09-29T13:18:59.907Z,52.90
2022-09-29T13:21:29.943Z,52.40
2022-09-29T13:23:59.707Z,53.10
2022-09-29T13:26:44.951Z,53.30
2022-09-29T13:29:18.095Z,54.60
2022-09-29T13:31:46.203Z,56.70
2022-09-29T13:34:32.803Z,59.40
2022-09-29T13:37:25.692Z,61.00
2022-09-29T13:39:59.431Z,65.50
2022-09-29T13:42:49.309Z,68.10
2022-09-29T13:45:31.689Z,71.30
2022-09-29T13:48:01.866Z,74.40
2022-09-29T13:50:41.074Z,75.70
2022-09-29T13:53:20.455Z,78.10
2022-09-29T13:56:02.358Z,81.20
2022-09-29T13:58:56.380Z,81.70
2022-09-29T14:01:31.766Z,83.00
2022-09-29T14:03:59.141Z,82.40
2022-09-29T14:06:43.497Z,82.90
2022-09-29T14:09:15.943Z,81.20
2022-09-29T14:11:52.780Z,81.40
2022-09-29T14:14:45.830Z,80.20
2022-09-29T14:17:19.845Z,78.40
2022-09-29T14:19:52.842Z,78.30
2022-09-29T14:22:31.708Z,78.00
2022-09-29T14:25:10.920Z,79.80
2022-09-29T14:27:47.721Z,78.40
2022-09-29T14:30:41.272Z,79.10
2022-09-29T14:33:29.954Z,75.50
2022-09-29T14:36:00.176Z,73.70
2022-09-29T14:38:29.962Z,74.60
2022-09-29T14:40:57.976Z,71.90
2022-09-29T14:43:26.420Z,67.00
2022-09-29T14:46:14.757Z,69.00
2022-09-29T14:49:19.165Z,63.00
2022-09-29T14:51:58.265Z,63.10
2022-09-29T14:54:29.484Z,62.40
2022-09-29T14:57:03.544Z,60.80
2022-09-29T14:59:35.520Z,59.40
2022-09-29T15:02:11.515Z,57.40
2022-09-29T15:04:39.385Z,59.20
2022-09-29T15:07:11.171Z,58.60
2022-09-29T15:09:38.592Z,60.00
2022-09-29T15:12:15.160Z,60.40
2022-09-29T15:14:42.242Z,60.50
2022-09-29T15:17:18.962Z,60.70
2022-09-29T15:20:08.092Z,61.50
2022-09-29T15:22:37.887Z,61.20
2022-09-29T15:25:21.567Z,59.30
2022-09-29T15:27:50.268Z,59.20
2022-09-29T15:30:18.451Z,57.90
2022-09-29T15:32:46.225Z,56.50
2022-09-29T15:35:14.438Z,55.20
2022-09-29T15:37:52.888Z,54.20
2022-09-29T15:40:24.243Z,53.40
2022-09-29T15:42:55.551Z,53.20
2022-09-29T15:45:23.840Z,53.30
2022-09-29T15:47:59.625Z,53.60
2022-09-29T15:50:26.810Z,54.10
2022-09-29T15:52:53.683Z,53.40
2022-09-29T15:55:26.700Z,53.00
2022-09-29T15:57:54.673Z,52.40
2022-09-29T16:00:21.341Z,52.70
2022-09-29T16:03:03.227Z,52.70
2022-09-29T16:05:35.299Z,52.30
2022-09-29T16:08:14.504Z,53.10
2022-09-29T16:10:49.543Z,53.80
2022-09-29T16:13:19.861Z,54.70
2022-09-29T16:15:48.411Z,53.70
2022-09-29T16:18:30.263Z,53.00
2022-09-29T16:20:59.918Z,53.60
2022-09-29T16:23:37.868Z,54.70
2022-09-29T16:26:07.406Z,54.60
2022-09-29T16:28:37.374Z,54.70
2022-09-29T16:31:05.551Z,55.70
2022-09-29T16:33:34.476Z,57.00
2022-09-29T16:36:03.317Z,58.40
2022-09-29T16:38:40.515Z,58.70
2022-09-29T16:41:09.609Z,59.80
2022-09-29T16:43:37.614Z,60.70
2022-09-29T16:46:06.932Z,60.90
2022-09-29T16:48:37.780Z,61.10
2022-09-29T16:51:12.298Z,61.10
2022-09-29T16:53:49.143Z,62.00
2022-09-29T16:56:25.589Z,61.70
2022-09-29T16:59:11.409Z,62.50
2022-09-29T17:01:41.671Z,63.40
2022-09-29T17:04:09.557Z,65.30
2022-09-29T17:06:36.598Z,66.10
2022-09-29T17:09:04.238Z,66.20
2022-09-29T17:11:31.034Z,66.40
2022-09-29T17:13:57.911Z,66.80
2022-09-29T17:16:25.298Z,67.40
2022-09-29T17:18:53.292Z,66.70
2022-09-29T17:21:20.372Z,66.40
2022-09-29T17:23:47.194Z,67.00
2022-09-29T17:26:52.879Z,67.80
2022-09-29T17:29:19.571Z,67.50
2022-09-29T17:31:46.215Z,68.00
2022-09-29T17:34:12.868Z,68.90
2022-09-29T17:36:39.705Z,69.30
2022-09-29T17:39:06.607Z,70.00
2022-09-29T17:41:33.964Z,70.30
2022-09-29T17:44:09.919Z,70.90
2022-09-29T17:46:37.380Z,71.10
2022-09-29T17:49:04.352Z,71.20
2022-09-29T17:51:31.069Z,71.50
2022-09-29T17:53:59.275Z,72.00
2022-09-29T17:56:26.313Z,72.20
2022-09-29T17:58:53.761Z,73.30
2022-09-29T18:01:21.609Z,74.20
2022-09-29T18:03:48.789Z,74.70
2022-09-29T18:06:22.610Z,75.00
2022-09-29T18:08:53.767Z,75.50
2022-09-29T18:11:22.120Z,75.30
2022-09-29T18:13:49.259Z,75.20
2022-09-29T18:16:17.166Z,75.80
2022-09-29T18:18:45.148Z,76.20
2022-09-29T18:21:12.733Z,76.80
2022-09-29T18:23:39.623Z,76.90
2022-09-29T18:26:06.546Z,78.20
2022-09-29T18:28:33.555Z,78.40
2022-09-29T18:31:11.608Z,79.90
2022-09-29T18:33:39.441Z,80.90
2022-09-29T18:36:06.177Z,80.60
2022-09-29T18:38:32.852Z,81.90
2022-09-29T18:40:59.550Z,81.30
2022-09-29T18:43:27.358Z,81.10
2022-09-29T18:45:55.154Z,79.80
2022-09-29T18:48:21.896Z,79.30
2022-09-29T18:50:49.658Z,79.00
2022-09-29T18:53:17.560Z,78.40
2022-09-29T18:55:44.503Z,78.10
2022-09-29T18:58:14.968Z,77.70
2022-09-29T19:00:43.551Z,77.50
2022-09-29T19:03:10.261Z,77.30
2022-09-29T19:05:40.320Z,78.20
2022-09-29T19:08:07.132Z,77.80
2022-09-29T19:10:36.423Z,77.70
2022-09-29T19:13:04.571Z,77.60
2022-09-29T19:15:34.672Z,77.60
2022-09-29T19:18:02.394Z,77.60
2022-09-29T19:20:30.007Z,77.50
2022-09-29T19:22:58.748Z,77.20
2022-09-29T19:25:28.907Z,76.60
2022-09-29T19:27:56.702Z,76.40
2022-09-29T19:30:24.634Z,77.10
2022-09-29T19:32:51.947Z,77.80
2022-09-29T19:35:20.947Z,77.80
2022-09-29T19:37:48.197Z,77.20
2022-09-29T19:40:16.857Z,77.50
2022-09-29T19:42:43.507Z,77.50
2022-09-29T19:45:10.403Z,77.30
2022-09-29T19:47:37.606Z,77.40
2022-09-29T19:50:26.077Z,78.10
2022-09-29T19:52:53.049Z,78.30
2022-09-29T19:55:20.527Z,78.40
2022-09-29T19:57:47.546Z,78.90
2022-09-29T20:00:16.071Z,78.90
2022-09-29T20:02:44.751Z,78.50
2022-09-29T20:05:11.663Z,78.00
2022-09-29T20:07:40.123Z,78.10
2022-09-29T20:10:08.416Z,78.30
2022-09-29T20:12:35.291Z,78.20
2022-09-29T20:15:02.046Z,77.80
2022-09-29T20:17:28.789Z,77.80
2022-09-29T20:19:55.499Z,78.50
2022-09-29T20:22:26.871Z,78.10
2022-09-29T20:24:57.248Z,78.20
2022-09-29T20:27:24.096Z,77.20
2022-09-29T20:29:50.860Z,77.00
2022-09-29T20:32:19.004Z,76.90
2022-09-29T20:34:45.930Z,77.40
2022-09-29T20:37:13.377Z,77.40
2022-09-29T20:39:40.117Z,77.80
2022-09-29T20:42:07.139Z,78.00
2022-09-29T20:44:33.913Z,77.90
2022-09-29T20:47:00.617Z,77.90
2022-09-29T20:49:27.531Z,77.20
2022-09-29T20:51:54.639Z,77.10
2022-09-29T20:54:21.511Z,76.70
2022-09-29T20:56:50.424Z,76.80
2022-09-29T20:59:18.740Z,76.40
2022-09-29T21:01:45.875Z,76.30
2022-09-29T21:04:13.761Z,76.00
2022-09-29T21:06:42.397Z,75.30
2022-09-29T21:09:13.878Z,75.60
2022-09-29T21:11:41.685Z,75.70
2022-09-29T21:14:12.434Z,75.60
2022-09-29T21:16:44.857Z,75.00
2022-09-29T21:19:12.751Z,74.70
2022-09-29T21:21:41.033Z,74.10
2022-09-29T21:24:08.681Z,73.40
2022-09-29T21:26:35.413Z,73.00
2022-09-29T21:29:02.712Z,73.00
2022-09-29T21:31:30.715Z,72.50
2022-09-29T21:33:58.819Z,72.30
2022-09-29T21:36:26.579Z,72.10
2022-09-29T21:38:53.250Z,72.60
2022-09-29T21:41:21.690Z,72.60
2022-09-29T21:43:49.208Z,76.90
2022-09-29T21:46:17.433Z,78.40
2022-09-29T21:48:44.852Z,79.30
2022-09-29T21:51:12.971Z,78.90
2022-09-29T21:53:40.125Z,82.00
2022-09-29T21:56:11.167Z,81.70
2022-09-29T21:58:38.463Z,81.20
2022-09-29T22:01:11.122Z,80.80
2022-09-29T22:03:39.520Z,82.80
2022-09-29T22:06:10.446Z,85.10
2022-09-29T22:08:37.097Z,85.70
2022-09-29T22:11:04.004Z,84.70
2022-09-29T22:13:30.805Z,84.50
2022-09-29T22:16:03.945Z,86.40
2022-09-29T22:18:41.319Z,87.50
2022-09-29T22:21:09.846Z,87.50
2022-09-29T22:23:36.667Z,86.60
2022-09-29T22:26:03.512Z,87.20
2022-09-29T22:28:30.706Z,87.80
2022-09-29T22:31:09.251Z,87.10
2022-09-29T22:33:36.596Z,88.30
2022-09-29T22:36:03.637Z,89.30
2022-09-29T22:38:30.445Z,90.80
2022-09-29T22:40:57.287Z,91.10
2022-09-29T22:43:23.942Z,90.60
2022-09-29T22:45:51.245Z,90.30
2022-09-29T22:48:18.787Z,90.20
2022-09-29T22:50:46.852Z,90.10
2022-09-29T22:53:14.349Z,90.10
2022-09-29T22:55:44.230Z,91.40
2022-09-29T22:58:11.309Z,91.20
2022-09-29T23:00:38.750Z,90.90
2022-09-29T23:03:06.002Z,90.50
2022-09-29T23:05:32.959Z,89.60
2022-09-29T23:07:59.901Z,88.00
2022-09-29T23:10:26.560Z,87.60
2022-09-29T23:12:53.246Z,87.50
2022-09-29T23:15:19.949Z,87.60
2022-09-29T23:17:47.188Z,87.10
2022-09-29T23:20:14.383Z,85.80
2022-09-29T23:22:41.114Z,85.00
2022-09-29T23:25:08.017Z,83.80
2022-09-29T23:27:35.076Z,83.10
2022-09-29T23:30:01.866Z,82.50
2022-09-29T23:32:28.509Z,82.00
2022-09-29T23:34:55.146Z,81.20
2022-09-29T23:37:21.910Z,80.10
2022-09-29T23:39:48.768Z,80.40
2022-09-29T23:42:15.634Z,79.40
2022-09-29T23:44:42.344Z,78.40
2022-09-29T23:47:08.960Z,77.80
2022-09-29T23:49:35.629Z,77.90
2022-09-29T23:52:04.470Z,77.50
2022-09-29T23:54:31.156Z,76.80
2022-09-29T23:56:58.508Z,76.80
2022-09-29T23:59:25.663Z,76.60
